RJAN(METAR)
04/28 17:00
RJAN 280800Z 27018KT CAVOK 19/06 Q1005 RMK A2969=
戻る
トップページへ戻る
IMOC Co,.Ltd.